Time;durP1;ratioP1;P1;durP2;ratioP2;P2;SDS_P1;SDS_P2;PMS_P1;PMS_P2;Temp;Humidity;BMP_temperature;BMP_pressure;BME280_temperature;BME280_humidity;BME280_pressure;Samples;Min_cycle;Max_cycle;Signal;HPM_P1;HPM_P2
2022/12/14 00:00:14;;;;;;;;;;;1.60;99.90;;;;;;6156784;23;19905;-78
2022/12/14 00:02:40;;;;;;;;;;;1.60;99.90;;;;;;6157122;23;19915;-76
2022/12/14 00:05:05;;;;;;;;;;;1.60;99.90;;;;;;6157093;23;19915;-75
2022/12/14 00:07:31;;;;;;;;;;;1.60;99.90;;;;;;6157191;23;19909;-75
2022/12/14 00:09:57;;;;;;;;;;;1.60;99.90;;;;;;6157077;23;19992;-77
2022/12/14 00:12:22;;;;;;;;;;;1.60;99.90;;;;;;6157010;23;19905;-78
2022/12/14 00:14:48;;;;;;;;;;;1.60;99.90;;;;;;6157459;23;19912;-77
2022/12/14 00:17:14;;;;;;;;;;;1.60;99.90;;;;;;6157770;23;19979;-77
2022/12/14 00:19:40;;;;;;;;;;;1.60;99.90;;;;;;6157127;23;19905;-77
2022/12/14 00:22:05;;;;;;;;;;;1.60;99.90;;;;;;6157352;23;19944;-78
2022/12/14 00:24:31;;;;;;;;;;;1.60;99.90;;;;;;6157121;23;19911;-77
2022/12/14 00:26:56;;;;;;;;;;;1.60;99.90;;;;;;6157656;23;19909;-77
2022/12/14 00:29:22;;;;;;;;;;;1.60;99.90;;;;;;6157051;23;19904;-77
2022/12/14 00:31:48;;;;;;;;;;;1.60;99.90;;;;;;6157271;23;20343;-77
2022/12/14 00:34:14;;;;;;;;;;;1.70;99.90;;;;;;6157213;23;19911;-77
2022/12/14 00:36:39;;;;;;;;;;;1.60;99.90;;;;;;6154979;23;19987;-76
2022/12/14 00:39:05;;;;;;;;;;;1.60;99.90;;;;;;6156901;23;19905;-76
2022/12/14 00:41:30;;;;;;;;;;;1.70;99.90;;;;;;6155518;23;19958;-77
2022/12/14 00:43:56;;;;;;;;;;;1.70;99.90;;;;;;6157208;23;19905;-77
2022/12/14 00:46:21;;;;;;;;;;;1.70;99.90;;;;;;6155195;23;19916;-77
2022/12/14 00:48:47;;;;;;;;;;;1.70;99.90;;;;;;6157148;23;20288;-76
2022/12/14 00:51:17;;;;;;;;;;;1.70;99.90;;;;;;6157019;23;19911;-76
2022/12/14 00:53:43;;;;;;;;;;;1.80;99.90;;;;;;6157131;23;19905;-77
2022/12/14 00:56:09;;;;;;;;;;;1.70;99.90;;;;;;6157180;23;19905;-77
2022/12/14 00:58:35;;;;;;;;;;;1.70;99.90;;;;;;6156740;23;19932;-77
2022/12/14 01:01:03;;;;;;;;;;;1.70;99.90;;;;;;6156899;23;19912;-76
2022/12/14 01:03:28;;;;;;;;;;;1.70;99.90;;;;;;6157043;23;19905;-76
2022/12/14 01:05:54;;;;;;;;;;;1.70;99.90;;;;;;6157170;23;19912;-76
2022/12/14 01:08:20;;;;;;;;;;;1.80;99.90;;;;;;6157225;23;19909;-77
2022/12/14 01:10:45;;;;;;;;;;;1.70;99.90;;;;;;6156984;23;19959;-77
2022/12/14 01:13:11;;;;;;;;;;;1.80;99.90;;;;;;6156736;23;19911;-76
2022/12/14 01:15:36;;;;;;;;;;;1.80;99.90;;;;;;6155325;23;19987;-77
2022/12/14 01:18:02;;;;;;;;;;;1.80;99.90;;;;;;6157070;23;19933;-76
2022/12/14 01:20:28;;;;;;;;;;;1.80;99.90;;;;;;6156988;23;20216;-77
2022/12/14 01:22:55;;;;;;;;;;;1.90;99.90;;;;;;6157242;23;19912;-77
2022/12/14 01:25:21;;;;;;;;;;;1.90;99.90;;;;;;6156715;23;19951;-76
2022/12/14 01:27:46;;;;;;;;;;;1.90;99.90;;;;;;6156704;23;19905;-77
2022/12/14 01:30:12;;;;;;;;;;;1.90;99.90;;;;;;6157327;23;19904;-76
2022/12/14 01:32:37;;;;;;;;;;;2.00;99.90;;;;;;6155192;23;19911;-77
2022/12/14 01:35:03;;;;;;;;;;;2.10;99.90;;;;;;6156756;23;20243;-77
2022/12/14 01:37:29;;;;;;;;;;;2.20;99.90;;;;;;6156307;23;19923;-77
2022/12/14 01:39:54;;;;;;;;;;;2.20;99.90;;;;;;6156173;23;19909;-77
2022/12/14 01:42:20;;;;;;;;;;;2.10;99.90;;;;;;6158500;23;20290;-77
2022/12/14 01:44:51;;;;;;;;;;;2.00;99.90;;;;;;6158473;23;19905;-77
2022/12/14 01:47:49;;;;;;;;;;;2.00;99.90;;;;;;6158598;23;19975;-76
2022/12/14 01:50:23;;;;;;;;;;;2.00;99.90;;;;;;6109072;23;19904;-76
2022/12/14 01:52:50;;;;;;;;;;;2.10;99.90;;;;;;6158449;23;19905;-76
2022/12/14 01:55:36;;;;;;;;;;;2.10;99.90;;;;;;6158509;23;19908;-76
2022/12/14 01:58:01;;;;;;;;;;;2.10;99.90;;;;;;6157583;23;19905;-77
2022/12/14 02:00:27;;;;;;;;;;;2.10;99.90;;;;;;6158580;23;19904;-76
2022/12/14 02:02:58;;;;;;;;;;;2.00;99.90;;;;;;6158153;23;20319;-76
2022/12/14 02:05:24;;;;;;;;;;;2.10;99.90;;;;;;6156598;23;19963;-77
2022/12/14 02:07:51;;;;;;;;;;;2.10;99.90;;;;;;6157890;23;19987;-77
2022/12/14 02:10:17;;;;;;;;;;;2.00;99.90;;;;;;6158858;23;19956;-77
2022/12/14 02:12:47;;;;;;;;;;;2.10;99.90;;;;;;6158517;23;19905;-76
2022/12/14 02:15:13;;;;;;;;;;;2.00;99.90;;;;;;6158372;23;19983;-77
2022/12/14 02:17:40;;;;;;;;;;;2.00;99.90;;;;;;6158665;23;19904;-77
2022/12/14 02:20:06;;;;;;;;;;;2.00;99.90;;;;;;6158354;23;19928;-76
2022/12/14 02:22:50;;;;;;;;;;;2.10;99.90;;;;;;6158552;23;19909;-76
2022/12/14 02:25:15;;;;;;;;;;;2.10;99.90;;;;;;6157939;23;19908;-76
2022/12/14 02:27:59;;;;;;;;;;;2.20;99.90;;;;;;6158425;23;20242;-77
2022/12/14 02:30:26;;;;;;;;;;;2.20;99.90;;;;;;6158190;23;19904;-77
2022/12/14 02:32:54;;;;;;;;;;;2.30;99.90;;;;;;6158177;23;19948;-77
2022/12/14 02:35:22;;;;;;;;;;;2.20;99.90;;;;;;6157953;23;19927;-77
2022/12/14 02:38:11;;;;;;;;;;;2.10;99.90;;;;;;6158038;23;19923;-76
2022/12/14 02:40:40;;;;;;;;;;;2.10;99.90;;;;;;6140799;23;19905;-77
2022/12/14 02:43:10;;;;;;;;;;;2.00;99.90;;;;;;6157885;23;19951;-76
2022/12/14 02:45:40;;;;;;;;;;;2.20;99.90;;;;;;6158286;23;20008;-77
2022/12/14 02:48:13;;;;;;;;;;;2.20;99.90;;;;;;6158015;23;20243;-77
2022/12/14 02:50:41;;;;;;;;;;;2.10;99.90;;;;;;6157699;23;20028;-77
2022/12/14 02:53:18;;;;;;;;;;;2.00;99.90;;;;;;6157971;23;19905;-77
2022/12/14 02:55:48;;;;;;;;;;;2.10;99.90;;;;;;6158161;23;19912;-77
2022/12/14 02:58:21;;;;;;;;;;;2.10;99.90;;;;;;6157926;23;19908;-77
2022/12/14 03:00:47;;;;;;;;;;;2.20;99.90;;;;;;6157626;23;20386;-77
2022/12/14 03:03:12;;;;;;;;;;;2.20;99.90;;;;;;6157906;23;19930;-76
2022/12/14 03:05:38;;;;;;;;;;;2.30;99.90;;;;;;6157709;23;19909;-77
2022/12/14 03:08:13;;;;;;;;;;;2.60;99.90;;;;;;6157723;23;20032;-77
2022/12/14 03:10:56;;;;;;;;;;;2.60;99.90;;;;;;6158047;23;19947;-76
2022/12/14 03:13:36;;;;;;;;;;;2.60;99.90;;;;;;6157695;23;19983;-76
2022/12/14 03:16:06;;;;;;;;;;;2.40;99.90;;;;;;6158222;23;19936;-76
2022/12/14 03:18:38;;;;;;;;;;;2.40;99.90;;;;;;6157957;23;19905;-76
2022/12/14 03:21:06;;;;;;;;;;;2.40;99.90;;;;;;6157643;23;19905;-76
2022/12/14 03:23:33;;;;;;;;;;;2.30;99.90;;;;;;6156146;23;20323;-77
2022/12/14 03:26:07;;;;;;;;;;;2.40;99.90;;;;;;6157943;23;19908;-77
2022/12/14 03:28:36;;;;;;;;;;;2.40;99.90;;;;;;6157903;23;19904;-77
2022/12/14 03:31:05;;;;;;;;;;;2.50;99.90;;;;;;6157653;23;20332;-76
2022/12/14 03:33:31;;;;;;;;;;;2.60;99.90;;;;;;6157475;23;19912;-76
2022/12/14 03:35:56;;;;;;;;;;;2.70;99.90;;;;;;6157043;23;19912;-77
2022/12/14 03:38:27;;;;;;;;;;;2.70;99.90;;;;;;6157558;23;19943;-77
2022/12/14 03:41:02;;;;;;;;;;;2.50;99.90;;;;;;6157585;23;19905;-76
2022/12/14 03:43:28;;;;;;;;;;;2.40;99.90;;;;;;6157671;23;19904;-76
2022/12/14 03:45:59;;;;;;;;;;;2.30;99.90;;;;;;6157360;23;19959;-77
2022/12/14 03:48:51;;;;;;;;;;;2.40;99.90;;;;;;6157596;23;20298;-77
2022/12/14 03:51:17;;;;;;;;;;;2.40;99.90;;;;;;6149962;23;19913;-77
2022/12/14 03:53:48;;;;;;;;;;;2.40;99.90;;;;;;6157466;23;19926;-76
2022/12/14 03:56:32;;;;;;;;;;;2.60;99.90;;;;;;6157319;23;20247;-77
2022/12/14 03:59:01;;;;;;;;;;;2.70;99.90;;;;;;6157246;23;19980;-76
2022/12/14 04:01:26;;;;;;;;;;;2.80;99.90;;;;;;6157124;23;19904;-77
2022/12/14 04:04:13;;;;;;;;;;;2.70;99.90;;;;;;6156946;23;20280;-77
2022/12/14 04:06:53;;;;;;;;;;;2.70;99.90;;;;;;6157119;23;19908;-76
2022/12/14 04:09:41;;;;;;;;;;;2.80;99.90;;;;;;6157552;23;19984;-77
2022/12/14 04:20:49;;;;;;;;;;;2.70;99.90;;;;;;6157122;23;19911;-77
2022/12/14 04:26:03;;;;;;;;;;;2.60;99.90;;;;;;6156868;23;19911;-77
2022/12/14 04:26:07;;;;;;;;;;;2.70;99.90;;;;;;6156420;23;20324;-77
2022/12/14 04:31:24;;;;;;;;;;;2.70;99.90;;;;;;6157262;23;19951;-77
2022/12/14 04:33:52;;;;;;;;;;;2.70;99.90;;;;;;6157113;23;20383;-77
2022/12/14 04:36:26;;;;;;;;;;;2.70;99.90;;;;;;6156782;23;20359;-76
2022/12/14 04:39:04;;;;;;;;;;;2.70;99.90;;;;;;6157104;23;19908;-76
2022/12/14 04:41:32;;;;;;;;;;;2.70;99.90;;;;;;6156974;23;19959;-77
2022/12/14 04:43:59;;;;;;;;;;;2.80;99.90;;;;;;6156982;23;19908;-77
2022/12/14 04:46:27;;;;;;;;;;;2.80;99.90;;;;;;6157175;23;20294;-76
2022/12/14 04:48:52;;;;;;;;;;;2.70;99.90;;;;;;6156687;23;19905;-77
2022/12/14 04:51:18;;;;;;;;;;;2.60;99.90;;;;;;6157253;23;19912;-76
2022/12/14 04:53:45;;;;;;;;;;;2.70;99.90;;;;;;6156959;23;19987;-77
2022/12/14 04:56:15;;;;;;;;;;;2.70;99.90;;;;;;6156997;23;19912;-77
2022/12/14 04:58:41;;;;;;;;;;;2.80;99.90;;;;;;6157347;23;19984;-76
2022/12/14 05:01:13;;;;;;;;;;;2.90;99.90;;;;;;6157376;23;19905;-77
2022/12/14 05:03:50;;;;;;;;;;;2.60;99.90;;;;;;6156903;23;19927;-77
2022/12/14 05:06:23;;;;;;;;;;;2.40;99.90;;;;;;6155169;23;19908;-76
2022/12/14 05:08:54;;;;;;;;;;;2.60;99.90;;;;;;6157454;23;19951;-77
2022/12/14 05:11:34;;;;;;;;;;;2.60;99.90;;;;;;6157040;23;19905;-77
2022/12/14 05:14:00;;;;;;;;;;;2.50;99.90;;;;;;6157716;23;19905;-77
2022/12/14 05:16:26;;;;;;;;;;;2.30;99.90;;;;;;6158728;23;19905;-77
2022/12/14 05:18:52;;;;;;;;;;;2.50;99.90;;;;;;6158692;23;19916;-76
2022/12/14 05:24:03;;;;;;;;;;;2.70;99.90;;;;;;6158486;23;19974;-77
2022/12/14 05:26:29;;;;;;;;;;;2.60;99.90;;;;;;6158486;23;19913;-77
2022/12/14 05:28:54;;;;;;;;;;;2.60;99.90;;;;;;6158668;23;19971;-76
2022/12/14 05:31:21;;;;;;;;;;;2.80;99.90;;;;;;6158673;23;19915;-78
2022/12/14 05:33:47;;;;;;;;;;;2.80;99.90;;;;;;6158619;23;19932;-77
2022/12/14 05:36:12;;;;;;;;;;;2.70;99.90;;;;;;6158264;23;19916;-76
2022/12/14 05:38:38;;;;;;;;;;;2.60;99.90;;;;;;6159088;23;19993;-76
2022/12/14 05:41:03;;;;;;;;;;;2.70;99.90;;;;;;6158752;23;19911;-76
2022/12/14 05:43:29;;;;;;;;;;;2.70;99.90;;;;;;6158759;23;19932;-77
2022/12/14 05:45:58;;;;;;;;;;;2.70;99.90;;;;;;6158576;23;19908;-77
2022/12/14 05:48:23;;;;;;;;;;;2.70;99.90;;;;;;6158427;23;19912;-76
2022/12/14 05:50:50;;;;;;;;;;;2.80;99.90;;;;;;6158915;23;20243;-77
2022/12/14 05:53:16;;;;;;;;;;;2.80;99.90;;;;;;6158640;23;19912;-76
2022/12/14 05:55:48;;;;;;;;;;;2.80;99.90;;;;;;6158637;23;19905;-76
2022/12/14 05:58:13;;;;;;;;;;;2.70;99.90;;;;;;6158569;23;20003;-77
2022/12/14 06:00:39;;;;;;;;;;;2.60;99.90;;;;;;6158406;23;20324;-76
2022/12/14 06:03:05;;;;;;;;;;;2.60;99.90;;;;;;6158483;23;19936;-77
2022/12/14 06:05:30;;;;;;;;;;;2.70;99.90;;;;;;6158216;23;20365;-77
2022/12/14 06:07:56;;;;;;;;;;;2.60;99.90;;;;;;6158319;23;19959;-77
2022/12/14 06:10:22;;;;;;;;;;;2.70;99.90;;;;;;6158418;23;19988;-77
2022/12/14 06:12:47;;;;;;;;;;;2.60;99.90;;;;;;6158256;23;20331;-77
2022/12/14 06:15:13;;;;;;;;;;;2.80;99.90;;;;;;6158471;23;19919;-77
2022/12/14 06:17:41;;;;;;;;;;;2.60;99.90;;;;;;6158537;23;19991;-76
2022/12/14 06:20:07;;;;;;;;;;;2.50;99.90;;;;;;6158246;23;19904;-77
2022/12/14 06:22:33;;;;;;;;;;;2.50;99.90;;;;;;6158222;23;20383;-76
2022/12/14 06:24:58;;;;;;;;;;;2.50;99.90;;;;;;6158000;23;19936;-77
2022/12/14 06:27:24;;;;;;;;;;;2.50;99.90;;;;;;6158446;23;19905;-77
2022/12/14 06:29:49;;;;;;;;;;;2.40;99.90;;;;;;6158270;23;19904;-76
2022/12/14 06:32:15;;;;;;;;;;;2.40;99.90;;;;;;6158293;23;19983;-77
2022/12/14 06:34:41;;;;;;;;;;;2.50;99.90;;;;;;6158140;23;19908;-77
2022/12/14 06:37:06;;;;;;;;;;;2.50;99.90;;;;;;6155846;23;19916;-76
2022/12/14 06:39:32;;;;;;;;;;;2.60;99.90;;;;;;6158034;23;20332;-76
2022/12/14 06:41:57;;;;;;;;;;;2.60;99.90;;;;;;6158267;23;19920;-76
2022/12/14 06:44:23;;;;;;;;;;;2.60;99.90;;;;;;6158263;23;19955;-77
2022/12/14 06:46:48;;;;;;;;;;;2.70;99.90;;;;;;6157872;23;19908;-76
2022/12/14 06:49:15;;;;;;;;;;;2.60;99.90;;;;;;6158427;23;20338;-77
2022/12/14 06:51:40;;;;;;;;;;;2.50;99.90;;;;;;6158262;23;19905;-76
2022/12/14 06:54:06;;;;;;;;;;;2.50;99.90;;;;;;6157729;23;20308;-77
2022/12/14 06:56:32;;;;;;;;;;;2.60;99.90;;;;;;6156209;23;19911;-77
2022/12/14 06:58:57;;;;;;;;;;;2.60;99.90;;;;;;6156261;23;19904;-77
2022/12/14 07:01:24;;;;;;;;;;;2.50;99.90;;;;;;6158220;23;19959;-77
2022/12/14 07:03:52;;;;;;;;;;;2.60;99.90;;;;;;6158322;23;19905;-76
2022/12/14 07:06:17;;;;;;;;;;;2.50;99.90;;;;;;6157810;23;19909;-77
2022/12/14 07:08:43;;;;;;;;;;;2.60;99.90;;;;;;6157779;23;20296;-76
2022/12/14 07:11:10;;;;;;;;;;;2.60;99.90;;;;;;6157890;23;19905;-76
2022/12/14 07:13:36;;;;;;;;;;;2.60;99.90;;;;;;6157866;23;19912;-77
2022/12/14 07:16:03;;;;;;;;;;;2.60;99.90;;;;;;6157917;23;20039;-76
2022/12/14 07:18:29;;;;;;;;;;;2.50;99.90;;;;;;6157963;23;20350;-77
2022/12/14 07:20:55;;;;;;;;;;;2.50;99.90;;;;;;6157563;23;19979;-76
2022/12/14 07:23:20;;;;;;;;;;;2.70;99.90;;;;;;6157762;23;19983;-76
2022/12/14 07:25:46;;;;;;;;;;;2.80;99.90;;;;;;6157792;23;19908;-77
2022/12/14 07:28:11;;;;;;;;;;;2.80;99.90;;;;;;6157832;23;19912;-76
2022/12/14 07:30:37;;;;;;;;;;;2.70;99.90;;;;;;6157565;23;20185;-77
2022/12/14 07:33:03;;;;;;;;;;;2.60;99.90;;;;;;6157742;23;19904;-77
2022/12/14 07:35:28;;;;;;;;;;;2.60;99.90;;;;;;6157581;23;19911;-76
2022/12/14 07:37:54;;;;;;;;;;;2.70;99.90;;;;;;6156816;23;19929;-77
2022/12/14 07:40:20;;;;;;;;;;;2.60;99.90;;;;;;6157608;23;19983;-77
2022/12/14 07:42:49;;;;;;;;;;;2.50;99.90;;;;;;6157490;23;19979;-76
2022/12/14 07:45:15;;;;;;;;;;;2.60;99.90;;;;;;6157136;23;19936;-77
2022/12/14 07:47:40;;;;;;;;;;;2.70;99.90;;;;;;6157501;23;20244;-76
2022/12/14 07:50:06;;;;;;;;;;;2.60;99.90;;;;;;6157919;23;19912;-76
2022/12/14 07:52:32;;;;;;;;;;;2.70;99.90;;;;;;6157502;23;20346;-77
2022/12/14 07:54:57;;;;;;;;;;;2.70;99.90;;;;;;6157651;23;19909;-77
2022/12/14 07:57:23;;;;;;;;;;;2.60;99.90;;;;;;6157309;23;19905;-76
2022/12/14 07:59:49;;;;;;;;;;;2.70;99.90;;;;;;6157298;23;19912;-77
2022/12/14 08:02:15;;;;;;;;;;;2.60;99.90;;;;;;6157326;23;20229;-77
2022/12/14 08:04:41;;;;;;;;;;;2.60;99.90;;;;;;6157259;23;19916;-77
2022/12/14 08:07:06;;;;;;;;;;;2.60;99.90;;;;;;6157682;23;19908;-77
2022/12/14 08:09:32;;;;;;;;;;;2.70;99.90;;;;;;6157448;23;20013;-77
2022/12/14 08:11:57;;;;;;;;;;;2.60;99.90;;;;;;6157387;23;19904;-77
2022/12/14 08:14:23;;;;;;;;;;;2.70;99.90;;;;;;6157134;23;20290;-77
2022/12/14 08:16:49;;;;;;;;;;;2.70;99.90;;;;;;6157623;23;19912;-77
2022/12/14 08:19:15;;;;;;;;;;;2.70;99.90;;;;;;6157222;23;19905;-76
2022/12/14 08:21:41;;;;;;;;;;;2.60;99.90;;;;;;6157073;23;20266;-76
2022/12/14 08:24:09;;;;;;;;;;;2.60;99.90;;;;;;6157381;23;19947;-77
2022/12/14 08:26:34;;;;;;;;;;;2.60;99.90;;;;;;6157105;23;19912;-76
2022/12/14 08:29:02;;;;;;;;;;;2.60;99.90;;;;;;6156854;23;19905;-77
2022/12/14 08:31:27;;;;;;;;;;;2.60;99.90;;;;;;6157030;23;20383;-77
2022/12/14 08:33:53;;;;;;;;;;;2.70;99.90;;;;;;6157174;23;20025;-76
2022/12/14 08:36:23;;;;;;;;;;;2.70;99.90;;;;;;6156659;23;19948;-77
2022/12/14 08:39:15;;;;;;;;;;;2.70;96.00;;;;;;6157453;23;19905;-77
2022/12/14 08:41:41;;;;;;;;;;;2.70;79.70;;;;;;6149460;23;20398;-76
2022/12/14 08:44:07;;;;;;;;;;;2.60;51.50;;;;;;6157158;23;19948;-77
2022/12/14 08:46:34;;;;;;;;;;;2.70;59.50;;;;;;6157111;23;19908;-77
2022/12/14 08:48:59;;;;;;;;;;;2.80;96.80;;;;;;6156707;23;19936;-76
2022/12/14 08:51:26;;;;;;;;;;;2.80;84.90;;;;;;6157266;23;19912;-76
2022/12/14 08:53:52;;;;;;;;;;;2.80;72.40;;;;;;6157010;23;19987;-76
2022/12/14 08:56:18;;;;;;;;;;;2.80;91.80;;;;;;6157002;23;19904;-77
2022/12/14 08:58:44;;;;;;;;;;;2.80;70.80;;;;;;6156892;23;19905;-76
2022/12/14 09:01:12;;;;;;;;;;;2.70;22.80;;;;;;6157115;23;19905;-77
2022/12/14 09:03:38;;;;;;;;;;;2.80;27.70;;;;;;6156752;23;20251;-77
2022/12/14 09:06:05;;;;;;;;;;;2.80;53.00;;;;;;6155378;23;20059;-76
2022/12/14 09:08:31;;;;;;;;;;;2.90;27.40;;;;;;6156694;23;19908;-77
2022/12/14 09:10:57;;;;;;;;;;;2.90;14.50;;;;;;6156851;23;19988;-76
2022/12/14 09:13:23;;;;;;;;;;;2.90;1.00;;;;;;6157213;23;19931;-76
2022/12/14 09:16:01;;;;;;;;;;;2.80;1.00;;;;;;6157235;23;20296;-76
2022/12/14 09:18:27;;;;;;;;;;;2.90;19.00;;;;;;6156790;23;19911;-77
2022/12/14 09:20:54;;;;;;;;;;;2.90;14.90;;;;;;6157063;23;20290;-77
2022/12/14 09:23:22;;;;;;;;;;;2.90;17.60;;;;;;6155236;23;19905;-76
2022/12/14 09:25:56;;;;;;;;;;;2.90;31.90;;;;;;6156694;23;19909;-76
2022/12/14 09:28:22;;;;;;;;;;;2.90;26.10;;;;;;6157002;23;20228;-78
2022/12/14 09:30:52;;;;;;;;;;;2.90;38.20;;;;;;6156698;23;19911;-77
2022/12/14 09:33:18;;;;;;;;;;;2.90;56.60;;;;;;6157633;23;20363;-77
2022/12/14 09:35:43;;;;;;;;;;;3.00;66.20;;;;;;6156701;23;19905;-77
2022/12/14 09:38:09;;;;;;;;;;;3.10;63.80;;;;;;6156946;23;19912;-76
2022/12/14 09:40:38;;;;;;;;;;;3.00;1.00;;;;;;6157046;23;19911;-76
2022/12/14 09:43:04;;;;;;;;;;;3.00;1.00;;;;;;6156864;23;19928;-76
2022/12/14 09:45:38;;;;;;;;;;;2.90;1.00;;;;;;6156729;23;19908;-77
2022/12/14 09:48:10;;;;;;;;;;;3.00;1.00;;;;;;6157100;23;19999;-77
2022/12/14 09:50:37;;;;;;;;;;;3.10;1.00;;;;;;6156692;23;19927;-77
2022/12/14 09:53:05;;;;;;;;;;;3.10;1.00;;;;;;6156590;23;19905;-77
2022/12/14 09:55:33;;;;;;;;;;;3.10;1.00;;;;;;6157080;23;19905;-76
2022/12/14 09:58:04;;;;;;;;;;;3.20;1.00;;;;;;6156789;23;19919;-77
2022/12/14 10:00:52;;;;;;;;;;;3.40;1.00;;;;;;6155004;23;19928;-77
2022/12/14 10:03:26;;;;;;;;;;;3.60;1.00;;;;;;6146461;23;19905;-77
2022/12/14 10:06:04;;;;;;;;;;;3.60;1.00;;;;;;6158526;23;19919;-76
2022/12/14 10:08:51;;;;;;;;;;;3.70;1.00;;;;;;6158361;23;19911;-76
2022/12/14 10:11:17;;;;;;;;;;;3.70;1.00;;;;;;6158648;23;19911;-76
2022/12/14 10:13:45;;;;;;;;;;;3.80;1.00;;;;;;6158315;23;20304;-76
2022/12/14 10:16:19;;;;;;;;;;;3.80;1.00;;;;;;6158371;23;19916;-77
2022/12/14 10:18:50;;;;;;;;;;;3.70;99.90;;;;;;6158446;23;19912;-76
2022/12/14 10:21:19;;;;;;;;;;;3.80;99.90;;;;;;6156294;23;19904;-76
2022/12/14 10:24:00;;;;;;;;;;;4.00;99.90;;;;;;6157984;23;19932;-76
2022/12/14 10:26:29;;;;;;;;;;;4.10;99.90;;;;;;6158006;23;20324;-75
2022/12/14 10:28:58;;;;;;;;;;;4.10;99.90;;;;;;6158019;23;20009;-76
2022/12/14 10:31:39;;;;;;;;;;;4.10;99.90;;;;;;6158163;23;20332;-75
2022/12/14 10:34:15;;;;;;;;;;;4.00;99.90;;;;;;6157844;23;20248;-76
2022/12/14 10:36:55;;;;;;;;;;;3.90;99.90;;;;;;6157624;23;19916;-75
2022/12/14 10:39:25;;;;;;;;;;;3.90;99.90;;;;;;6158320;23;20370;-77
2022/12/14 10:41:54;;;;;;;;;;;4.00;99.90;;;;;;6158048;23;19909;-76
2022/12/14 10:44:25;;;;;;;;;;;4.00;99.90;;;;;;6158031;23;20320;-76
2022/12/14 10:46:55;;;;;;;;;;;4.00;99.90;;;;;;6158141;23;20248;-75
2022/12/14 10:49:26;;;;;;;;;;;4.00;99.90;;;;;;6158422;23;19908;-75
2022/12/14 10:52:03;;;;;;;;;;;4.30;99.90;;;;;;6156128;23;20236;-75
2022/12/14 10:54:44;;;;;;;;;;;4.30;99.90;;;;;;6158340;23;19905;-75
2022/12/14 10:57:15;;;;;;;;;;;4.30;99.90;;;;;;6158215;23;19939;-76
2022/12/14 10:59:42;;;;;;;;;;;4.30;99.90;;;;;;6157715;23;19908;-76
2022/12/14 11:02:08;;;;;;;;;;;4.00;1.00;;;;;;6158372;23;19904;-75
2022/12/14 11:04:59;;;;;;;;;;;4.00;96.50;;;;;;6157983;23;20035;-76
2022/12/14 11:07:35;;;;;;;;;;;4.00;99.90;;;;;;6153264;23;20279;-76
2022/12/14 11:10:21;;;;;;;;;;;4.10;99.90;;;;;;6158241;23;20000;-74
2022/12/14 11:12:56;;;;;;;;;;;4.10;99.90;;;;;;6157925;23;19905;-75
2022/12/14 11:15:23;;;;;;;;;;;4.10;99.90;;;;;;6157721;23;19956;-75
2022/12/14 11:18:00;;;;;;;;;;;4.10;99.90;;;;;;6156112;23;20228;-75
2022/12/14 11:20:26;;;;;;;;;;;4.10;99.90;;;;;;6157802;23;19904;-76
2022/12/14 11:22:58;;;;;;;;;;;4.10;44.10;;;;;;6157762;23;20290;-76
2022/12/14 11:25:38;;;;;;;;;;;4.10;99.90;;;;;;6157712;23;19909;-75
2022/12/14 11:28:22;;;;;;;;;;;4.10;1.00;;;;;;6157725;23;20001;-76
2022/12/14 11:30:52;;;;;;;;;;;4.10;50.30;;;;;;6158016;23;19936;-75
2022/12/14 11:33:17;;;;;;;;;;;4.20;11.60;;;;;;6157578;23;19905;-75
2022/12/14 11:35:50;;;;;;;;;;;4.30;1.00;;;;;;6157604;23;20435;-76
2022/12/14 11:38:16;;;;;;;;;;;4.50;10.10;;;;;;6101889;23;19917;-76
2022/12/14 11:40:41;;;;;;;;;;;4.50;1.00;;;;;;6128048;23;19987;-76
2022/12/14 11:43:17;;;;;;;;;;;4.50;1.00;;;;;;6127962;23;19904;-75
2022/12/14 11:45:49;;;;;;;;;;;4.50;1.00;;;;;;6127966;23;19909;-75
2022/12/14 11:48:14;;;;;;;;;;;4.50;1.00;;;;;;6127961;23;19937;-76
2022/12/14 11:50:40;;;;;;;;;;;4.60;1.00;;;;;;6102040;23;19927;-75
2022/12/14 11:53:10;;;;;;;;;;;4.70;1.00;;;;;;6127842;23;19906;-76
2022/12/14 11:55:40;;;;;;;;;;;4.60;1.00;;;;;;6127775;23;19933;-75
2022/12/14 11:58:13;;;;;;;;;;;4.60;1.00;;;;;;6127980;23;19953;-75
2022/12/14 12:00:47;;;;;;;;;;;4.70;1.00;;;;;;6127925;23;19988;-77
2022/12/14 12:03:42;;;;;;;;;;;4.70;1.00;;;;;;6127867;23;19905;-75
2022/12/14 12:06:11;;;;;;;;;;;4.70;1.00;;;;;;6108110;23;20301;-76
2022/12/14 12:08:39;;;;;;;;;;;4.80;1.00;;;;;;6128012;23;19905;-76
2022/12/14 12:11:24;;;;;;;;;;;4.90;1.00;;;;;;6127792;23;19943;-76
2022/12/14 12:13:51;;;;;;;;;;;5.10;1.00;;;;;;6127091;23;19905;-75
2022/12/14 12:16:18;;;;;;;;;;;4.90;1.00;;;;;;6127913;23;20336;-76
2022/12/14 12:18:49;;;;;;;;;;;5.00;1.00;;;;;;6127560;23;19951;-75
2022/12/14 12:21:30;;;;;;;;;;;5.00;1.00;;;;;;6127577;23;19905;-75
2022/12/14 12:23:56;;;;;;;;;;;5.00;1.00;;;;;;6127561;23;19968;-76
2022/12/14 12:26:30;;;;;;;;;;;5.00;1.00;;;;;;6127882;23;20317;-75
2022/12/14 12:29:00;;;;;;;;;;;4.90;1.00;;;;;;6127661;23;19939;-75
2022/12/14 12:31:30;;;;;;;;;;;4.80;1.00;;;;;;6127578;23;20001;-75
2022/12/14 12:33:56;;;;;;;;;;;5.00;1.00;;;;;;6128150;23;19905;-75
2022/12/14 12:36:22;;;;;;;;;;;5.00;1.00;;;;;;6110762;23;19991;-76
2022/12/14 12:38:57;;;;;;;;;;;5.20;1.00;;;;;;6156932;23;19905;-75
2022/12/14 12:41:29;;;;;;;;;;;5.00;1.00;;;;;;6156880;23;19904;-75
2022/12/14 12:44:24;;;;;;;;;;;5.30;1.00;;;;;;6157098;23;19912;-76
2022/12/14 12:47:13;;;;;;;;;;;5.20;1.00;;;;;;6129997;23;19955;-77
2022/12/14 12:49:38;;;;;;;;;;;5.20;1.00;;;;;;6154978;23;20260;-77
2022/12/14 12:52:14;;;;;;;;;;;5.30;1.00;;;;;;6155601;23;19911;-77
2022/12/14 12:54:43;;;;;;;;;;;5.30;1.00;;;;;;6157191;23;19904;-77
2022/12/14 12:57:10;;;;;;;;;;;5.40;1.00;;;;;;6157254;23;19905;-77
2022/12/14 12:59:56;;;;;;;;;;;5.40;1.00;;;;;;6156666;23;19943;-77
2022/12/14 13:02:40;;;;;;;;;;;5.40;1.00;;;;;;6156081;23;19909;-77
2022/12/14 13:05:11;;;;;;;;;;;5.50;1.00;;;;;;6156752;23;19904;-75
2022/12/14 13:07:36;;;;;;;;;;;5.40;1.00;;;;;;6156736;23;19904;-77
2022/12/14 13:10:02;;;;;;;;;;;5.20;1.00;;;;;;6156924;23;19967;-77
2022/12/14 13:12:32;;;;;;;;;;;5.10;1.00;;;;;;6157230;23;19905;-77
2022/12/14 13:14:58;;;;;;;;;;;5.00;1.00;;;;;;6156891;23;19905;-78
2022/12/14 13:17:40;;;;;;;;;;;5.20;1.00;;;;;;6156791;23;19904;-76
2022/12/14 13:20:14;;;;;;;;;;;5.20;1.00;;;;;;6157279;23;19904;-76
2022/12/14 13:22:40;;;;;;;;;;;5.10;1.00;;;;;;6157195;23;19911;-77
2022/12/14 13:25:12;;;;;;;;;;;5.00;1.00;;;;;;6155213;23;19908;-77
2022/12/14 13:27:56;;;;;;;;;;;5.00;41.80;;;;;;6156296;23;19905;-77
2022/12/14 13:30:27;;;;;;;;;;;4.80;1.00;;;;;;6156851;23;19908;-76
2022/12/14 13:33:16;;;;;;;;;;;4.80;1.00;;;;;;6157053;23;20323;-76
2022/12/14 13:35:44;;;;;;;;;;;4.70;1.00;;;;;;6115751;23;20008;-76
2022/12/14 13:38:11;;;;;;;;;;;4.90;1.00;;;;;;6157902;23;19917;-76
2022/12/14 13:40:54;;;;;;;;;;;5.00;1.00;;;;;;6158777;23;19904;-78
2022/12/14 13:43:38;;;;;;;;;;;5.00;1.00;;;;;;6159004;23;19912;-77
2022/12/14 13:46:06;;;;;;;;;;;5.00;1.00;;;;;;6158947;23;19915;-76
2022/12/14 13:48:38;;;;;;;;;;;4.90;1.00;;;;;;6158730;23;20034;-77
2022/12/14 13:51:05;;;;;;;;;;;4.90;1.00;;;;;;6158967;23;19905;-76
2022/12/14 13:53:35;;;;;;;;;;;5.10;1.00;;;;;;6158356;23;19911;-76
2022/12/14 13:56:01;;;;;;;;;;;5.10;1.00;;;;;;6158575;23;19951;-76
2022/12/14 13:58:30;;;;;;;;;;;5.00;1.00;;;;;;6159207;23;20224;-76
2022/12/14 14:00:57;;;;;;;;;;;4.90;1.00;;;;;;6158377;23;20402;-77
2022/12/14 14:03:35;;;;;;;;;;;4.90;1.00;;;;;;6156813;23;19911;-76
2022/12/14 14:06:05;;;;;;;;;;;4.80;1.00;;;;;;6158454;23;19948;-76
2022/12/14 14:08:32;;;;;;;;;;;4.70;1.00;;;;;;6158267;23;19905;-77
2022/12/14 14:11:17;;;;;;;;;;;4.60;1.00;;;;;;6158212;23;19905;-76
2022/12/14 14:13:43;;;;;;;;;;;4.70;19.10;;;;;;6158275;23;19905;-76
2022/12/14 14:16:13;;;;;;;;;;;4.80;1.00;;;;;;6158179;23;19912;-76
2022/12/14 14:18:50;;;;;;;;;;;4.70;1.00;;;;;;6158298;23;19911;-76
2022/12/14 14:21:19;;;;;;;;;;;4.70;1.00;;;;;;6156429;23;19911;-77
2022/12/14 14:24:05;;;;;;;;;;;4.80;1.00;;;;;;6158274;23;19912;-76
2022/12/14 14:26:32;;;;;;;;;;;4.80;1.00;;;;;;6158479;23;19916;-76
2022/12/14 14:29:13;;;;;;;;;;;4.90;1.00;;;;;;6158451;23;20243;-76
2022/12/14 14:31:49;;;;;;;;;;;4.90;1.00;;;;;;6158116;23;19939;-77
2022/12/14 14:34:20;;;;;;;;;;;4.80;1.00;;;;;;6158517;23;19956;-76
2022/12/14 14:36:46;;;;;;;;;;;4.70;1.00;;;;;;6158278;23;19916;-78
2022/12/14 14:39:32;;;;;;;;;;;4.80;1.00;;;;;;6158281;23;19908;-77
2022/12/14 14:41:59;;;;;;;;;;;4.90;1.00;;;;;;6158030;23;19905;-77
2022/12/14 14:44:32;;;;;;;;;;;4.90;1.00;;;;;;6158556;23;19904;-76
2022/12/14 14:47:00;;;;;;;;;;;4.80;1.00;;;;;;6157674;23;19947;-76
2022/12/14 14:49:29;;;;;;;;;;;4.70;1.00;;;;;;6157999;23;19911;-76
2022/12/14 14:51:55;;;;;;;;;;;4.70;1.00;;;;;;6157906;23;19905;-76
2022/12/14 14:54:22;;;;;;;;;;;4.70;1.00;;;;;;6158021;23;19904;-77
2022/12/14 14:56:51;;;;;;;;;;;4.80;1.00;;;;;;6156211;23;19940;-77
2022/12/14 14:59:17;;;;;;;;;;;4.80;1.00;;;;;;6157983;23;20235;-77
2022/12/14 15:01:46;;;;;;;;;;;4.90;1.00;;;;;;6157867;23;20235;-76